»·PEaware :: UAL837 KSAN-KSFO

UAL837 :: KSAN-KSFO

FLIGHT INFORMATION

Flight Status: Arrived
Operator:
United Airlines
More flights by this operator :: More flights under this callsign
Pilot: Amer K. (15838)
Aircraft: AIRBUS A319
(A319)
More flights by this aircraft type
Origin: KSAN San Diego Intl-Lindbergh
United States
Destination: KSFO San Francisco Intl
United States
More flights between these airports :: More routes between these airports
Route: +PADRZ2 IKAYE RIZIN SPLNT STOKD SERFR SERFR3
File this flight plan on PilotEdge
Remarks:
Altitude:
(Current/Filed)
36,000ft
Speed:
(Current/Filed)
450kts
Departed: 06-Nov-19 10:06 PM
Arrived: 06-Nov-19 11:18 PM
Distance/Time
Traveled:
388nm/1:12
Distance/Time
To Go:
Arrived

Flight Plot

Page will automatically refresh every two minutes.

Flight plan parsing failed; only flown route is shown


Map Options




Map Legend


Flown Route
Filed Route
Departure Airport
Arrival Airport
Navaid (VOR, NDB)
Fix

Horizontal Profiles

Position Reports

Time Latitude Longitude Heading Altitude Ground
Speed
06-Nov-19 21:19 32.734134 -117.201194 167 29ft 0kts
06-Nov-19 21:20 32.734134 -117.201194 167 29ft 0kts
06-Nov-19 21:21 32.734134 -117.201194 167 29ft 0kts
06-Nov-19 21:22 32.734134 -117.201194 167 29ft 0kts
06-Nov-19 21:23 32.734134 -117.201194 167 29ft 0kts
06-Nov-19 21:24 32.734134 -117.201194 167 29ft 0kts
06-Nov-19 21:25 32.734134 -117.201194 167 29ft 0kts
06-Nov-19 21:26 32.734134 -117.201194 167 29ft 0kts
06-Nov-19 21:27 32.734134 -117.201194 167 29ft 0kts
06-Nov-19 21:28 32.734134 -117.201194 167 29ft 0kts
06-Nov-19 21:29 32.734134 -117.201194 167 29ft 0kts
06-Nov-19 21:30 32.734134 -117.201194 167 29ft 0kts
06-Nov-19 21:31 32.734134 -117.201194 167 29ft 0kts
06-Nov-19 21:32 32.734134 -117.201194 167 29ft 0kts
06-Nov-19 21:33 32.734134 -117.201194 167 29ft 0kts
06-Nov-19 21:34 32.734134 -117.201194 167 29ft 0kts
06-Nov-19 21:35 32.734134 -117.201194 167 29ft 0kts
06-Nov-19 21:36 32.734134 -117.201194 167 29ft 0kts
06-Nov-19 21:37 32.734134 -117.201194 167 29ft 0kts
06-Nov-19 21:38 32.734134 -117.201194 167 29ft 0kts
06-Nov-19 21:39 32.734134 -117.201194 167 29ft 0kts
06-Nov-19 21:40 32.734134 -117.201194 167 29ft 0kts
06-Nov-19 21:41 32.734134 -117.201194 167 29ft 0kts
06-Nov-19 21:42 32.734134 -117.201194 167 29ft 0kts
06-Nov-19 21:43 32.734134 -117.201194 167 29ft 0kts
06-Nov-19 21:44 32.734134 -117.201194 167 29ft 0kts
06-Nov-19 21:45 32.734134 -117.201194 167 29ft 0kts
06-Nov-19 21:46 32.734134 -117.201194 167 29ft 0kts
06-Nov-19 21:47 32.734134 -117.201194 167 29ft 0kts
06-Nov-19 21:48 32.734134 -117.201194 167 29ft 0kts
06-Nov-19 21:49 32.734134 -117.201194 167 29ft 0kts
06-Nov-19 21:50 32.734644 -117.201326 167 29ft 2kts
06-Nov-19 21:51 32.735267 -117.201499 152 29ft 2kts
06-Nov-19 21:52 32.735465 -117.201760 106 29ft 0kts
06-Nov-19 21:53 32.735465 -117.201759 106 29ft 0kts
06-Nov-19 21:54 32.735464 -117.201758 106 29ft 0kts
06-Nov-19 21:55 32.735464 -117.201757 106 29ft 0kts
06-Nov-19 21:56 32.735464 -117.201755 106 29ft 0kts
06-Nov-19 21:57 32.735201 -117.200670 106 29ft 13kts
06-Nov-19 21:58 32.733563 -117.193898 105 29ft 26kts
06-Nov-19 21:59 32.731627 -117.185801 106 29ft 28kts
06-Nov-19 22:00 32.729533 -117.176934 89 29ft 8kts
06-Nov-19 22:01 32.729534 -117.176861 89 29ft 0kts
06-Nov-19 22:02 32.729534 -117.176859 89 29ft 0kts
06-Nov-19 22:03 32.729534 -117.176849 89 29ft 0kts
06-Nov-19 22:04 32.730295 -117.176233 289 29ft 0kts
06-Nov-19 22:05 32.735181 -117.196060 289 511ft 164kts
06-Nov-19 22:06 32.762820 -117.250141 302 3973ft 227kts
06-Nov-19 22:07 32.788910 -117.299160 303 6515ft 269kts
06-Nov-19 22:08 32.835509 -117.374057 309 10672ft 292kts
06-Nov-19 22:10 32.890620 -117.459333 308 13222ft 357kts
06-Nov-19 22:11 32.955295 -117.560095 308 14970ft 397kts
06-Nov-19 22:12 33.022002 -117.664274 308 14979ft 396kts
06-Nov-19 22:13 33.088100 -117.755508 319 14984ft 395kts
06-Nov-19 22:14 33.146255 -117.813085 321 14984ft 394kts
06-Nov-19 22:15 33.207222 -117.877185 316 14984ft 394kts
06-Nov-19 22:16 33.284641 -117.970133 316 14995ft 394kts
06-Nov-19 22:17 33.362636 -118.063174 315 16753ft 403kts
06-Nov-19 22:18 33.443464 -118.160091 315 19511ft 417kts
06-Nov-19 22:19 33.489230 -118.215059 315 20871ft 425kts
06-Nov-19 22:20 33.546124 -118.283513 315 22348ft 434kts
06-Nov-19 22:21 33.628864 -118.383374 315 24187ft 446kts
06-Nov-19 22:22 33.714576 -118.487047 315 25783ft 457kts
06-Nov-19 22:23 33.803056 -118.594437 315 27259ft 463kts
06-Nov-19 22:24 33.867344 -118.672656 315 28550ft 460kts
06-Nov-19 22:25 33.930726 -118.749968 314 29861ft 457kts
06-Nov-19 22:26 33.993519 -118.826719 314 31218ft 454kts
06-Nov-19 22:27 34.081776 -118.934903 314 33247ft 445kts
06-Nov-19 22:28 34.162483 -119.046012 302 35014ft 440kts
06-Nov-19 22:28 34.215461 -119.151194 301 36118ft 439kts
06-Nov-19 22:30 34.290922 -119.297118 301 36110ft 439kts
06-Nov-19 22:30 34.327741 -119.369370 301 36112ft 439kts
06-Nov-19 22:31 34.391977 -119.494901 301 36113ft 439kts
06-Nov-19 22:33 34.485846 -119.624362 314 36109ft 440kts
06-Nov-19 22:33 34.535650 -119.685105 313 36105ft 440kts
06-Nov-19 22:34 34.592415 -119.755840 313 36104ft 440kts
06-Nov-19 22:35 34.661265 -119.840659 313 36100ft 440kts
06-Nov-19 22:36 34.723056 -119.917343 313 36112ft 440kts
06-Nov-19 22:38 34.802081 -120.015532 314 36119ft 440kts
06-Nov-19 22:38 34.873508 -120.104525 314 36124ft 441kts
06-Nov-19 22:39 34.959171 -120.211582 314 36127ft 441kts
06-Nov-19 22:40 35.044571 -120.318647 314 36127ft 441kts
06-Nov-19 22:41 35.107930 -120.395634 317 36119ft 440kts
06-Nov-19 22:42 35.198265 -120.496505 317 36100ft 440kts
06-Nov-19 22:43 35.267079 -120.573917 317 36106ft 441kts
06-Nov-19 22:44 35.357143 -120.675320 318 36159ft 439kts
06-Nov-19 22:45 35.446782 -120.776621 318 36154ft 439kts
06-Nov-19 22:46 35.541022 -120.871875 324 36116ft 438kts
06-Nov-19 22:47 35.638287 -120.961700 323 36102ft 436kts
06-Nov-19 22:48 35.723072 -121.040801 324 36075ft 436kts
06-Nov-19 22:49 35.806648 -121.118817 324 36107ft 434kts
06-Nov-19 22:50 35.902448 -121.208553 324 36058ft 432kts
06-Nov-19 22:51 35.997499 -121.297890 325 35093ft 430kts
06-Nov-19 22:52 36.094160 -121.385172 330 33999ft 427kts
06-Nov-19 22:53 36.192311 -121.461093 330 32127ft 408kts
06-Nov-19 22:54 36.258920 -121.513362 329 30736ft 407kts
06-Nov-19 22:55 36.354921 -121.588559 329 28555ft 411kts
06-Nov-19 22:56 36.453041 -121.665717 329 26045ft 422kts
06-Nov-19 22:57 36.551616 -121.743580 328 24027ft 399kts
06-Nov-19 22:58 36.639328 -121.812947 328 22067ft 372kts
06-Nov-19 22:59 36.725134 -121.881063 328 19628ft 359kts
06-Nov-19 23:00 36.818458 -121.916033 348 17210ft 346kts
06-Nov-19 23:01 36.910842 -121.941357 347 15017ft 333kts
06-Nov-19 23:02 36.991782 -121.968110 342 13135ft 330kts
06-Nov-19 23:03 37.056429 -121.993798 343 11598ft 322kts
06-Nov-19 23:04 37.108560 -122.014074 343 10590ft 306kts
06-Nov-19 23:05 37.132991 -122.023615 343 10382ft 290kts
06-Nov-19 23:06 37.208072 -122.053086 343 8865ft 285kts
06-Nov-19 23:07 37.278583 -122.081191 342 8276ft 245kts
06-Nov-19 23:08 37.336912 -122.104150 343 7933ft 204kts
06-Nov-19 23:09 37.388459 -122.123891 346 6751ft 193kts
06-Nov-19 23:10 37.439940 -122.141202 345 5287ft 189kts
06-Nov-19 23:11 37.490741 -122.158621 344 4011ft 189kts
06-Nov-19 23:12 37.538046 -122.182857 302 3071ft 189kts
06-Nov-19 23:13 37.562318 -122.240642 298 2108ft 184kts
06-Nov-19 23:14 37.583122 -122.290177 298 1259ft 129kts
06-Nov-19 23:15 37.597462 -122.324324 297 669ft 106kts
06-Nov-19 23:16 37.610926 -122.356409 297 118ft 104kts
06-Nov-19 23:17 37.618662 -122.374865 298 27ft 18kts
06-Nov-19 23:18 37.618954 -122.378550 268 27ft 0kts
06-Nov-19 23:19 37.618954 -122.378552 268 27ft 0kts
06-Nov-19 23:20 37.617727 -122.388857 156 27ft 0kts
06-Nov-19 23:21 37.617726 -122.388857 156 27ft 0kts
06-Nov-19 23:22 37.617726 -122.388857 156 27ft 0kts
06-Nov-19 23:23 37.617726 -122.388857 156 27ft 0kts
06-Nov-19 23:24 37.617726 -122.388857 156 27ft 0kts
06-Nov-19 23:25 37.617726 -122.388857 156 27ft 0kts
06-Nov-19 23:26 37.617726 -122.388857 156 27ft 0kts
06-Nov-19 23:27 37.617726 -122.388857 156 27ft 0kts
06-Nov-19 23:28 37.617726 -122.388857 156 27ft 0kts
06-Nov-19 23:29 37.617726 -122.388857 156 27ft 0kts
06-Nov-19 23:30 37.617726 -122.388857 156 27ft 0kts
06-Nov-19 23:31 37.617726 -122.388857 156 27ft 0kts
06-Nov-19 23:32 37.617726 -122.388857 156 27ft 0kts

Navigation Log

Ident Type
Flight plan parsing failed, navigation log unavailable